createdAt,value
2023-03-29T00:00:16.762Z,57.32
2023-03-29T00:00:28.776Z,57.12
2023-03-29T00:00:40.946Z,57.36
2023-03-29T00:01:00.209Z,57.14
2023-03-29T00:01:12.516Z,57.22
2023-03-29T00:01:44.329Z,57.30
2023-03-29T00:01:56.812Z,57.59
2023-03-29T00:02:09.315Z,57.18
2023-03-29T00:02:21.523Z,57.42
2023-03-29T00:02:33.655Z,57.58
2023-03-29T00:02:48.414Z,57.34
2023-03-29T00:03:02.551Z,57.16
2023-03-29T00:03:14.884Z,56.95
2023-03-29T00:03:27.800Z,57.08
2023-03-29T00:03:40.337Z,57.04
2023-03-29T00:03:54.014Z,57.25
2023-03-29T00:04:06.788Z,57.02
2023-03-29T00:04:22.069Z,57.30
2023-03-29T00:04:34.319Z,57.17
2023-03-29T00:04:46.968Z,57.02
2023-03-29T00:05:03.937Z,57.04
2023-03-29T00:05:18.153Z,57.27
2023-03-29T00:05:33.976Z,57.44
2023-03-29T00:05:46.388Z,57.34
2023-03-29T00:06:03.061Z,57.86
2023-03-29T00:06:21.958Z,57.44
2023-03-29T00:06:34.068Z,57.29
2023-03-29T00:06:47.836Z,57.24
2023-03-29T00:07:04.140Z,57.49
2023-03-29T00:07:16.216Z,57.57
2023-03-29T00:07:30.233Z,57.35
2023-03-29T00:07:42.731Z,57.54
2023-03-29T00:07:54.629Z,57.59
2023-03-29T00:08:07.517Z,58.02
2023-03-29T00:08:22.038Z,57.55
2023-03-29T00:08:34.151Z,57.00
2023-03-29T00:08:46.126Z,57.13
2023-03-29T00:08:58.822Z,57.06
2023-03-29T00:09:11.287Z,57.14
2023-03-29T00:09:26.536Z,56.96
2023-03-29T00:09:38.891Z,57.01
2023-03-29T00:09:50.771Z,57.07
2023-03-29T00:10:06.474Z,57.46
2023-03-29T00:10:18.965Z,57.78
2023-03-29T00:10:32.642Z,57.37
2023-03-29T00:10:49.129Z,57.45
2023-03-29T00:11:01.537Z,57.26
2023-03-29T00:11:13.845Z,57.21
2023-03-29T00:11:27.152Z,57.70
2023-03-29T00:11:39.481Z,57.79
2023-03-29T00:11:51.409Z,57.55
2023-03-29T00:12:06.160Z,57.65
2023-03-29T00:12:18.090Z,57.48
2023-03-29T00:12:30.792Z,57.58
2023-03-29T00:12:42.753Z,57.57
2023-03-29T00:12:54.730Z,57.60
2023-03-29T00:13:06.687Z,57.43
2023-03-29T00:13:18.630Z,57.29
2023-03-29T00:13:30.695Z,57.54
2023-03-29T00:13:43.266Z,57.83
2023-03-29T00:13:55.349Z,57.87
2023-03-29T00:14:07.350Z,57.60
2023-03-29T00:14:19.295Z,57.83
2023-03-29T00:14:31.454Z,57.58
2023-03-29T00:14:43.402Z,57.82
2023-03-29T00:14:55.380Z,57.60
2023-03-29T00:15:08.329Z,57.70
2023-03-29T00:15:21.703Z,57.32
2023-03-29T00:15:33.671Z,57.42
2023-03-29T00:15:46.585Z,57.43
2023-03-29T00:15:58.485Z,57.59
2023-03-29T00:16:10.609Z,57.82
2023-03-29T00:16:22.728Z,57.64
2023-03-29T00:16:35.278Z,57.64
2023-03-29T00:16:47.374Z,57.44
2023-03-29T00:16:59.503Z,57.16
2023-03-29T00:17:11.617Z,57.25
2023-03-29T00:17:23.790Z,57.39
2023-03-29T00:17:36.026Z,57.53
2023-03-29T00:17:48.043Z,57.55
2023-03-29T00:18:00.189Z,57.64
2023-03-29T00:18:12.101Z,57.46
2023-03-29T00:18:24.032Z,57.42
2023-03-29T00:18:36.024Z,57.74
2023-03-29T00:18:50.988Z,57.34
2023-03-29T00:19:04.318Z,57.50
2023-03-29T00:19:16.334Z,57.48
2023-03-29T00:19:28.938Z,57.60
2023-03-29T00:19:44.098Z,57.74
2023-03-29T00:19:56.111Z,57.64
2023-03-29T00:20:10.383Z,57.61
2023-03-29T00:20:22.365Z,57.64
2023-03-29T00:20:34.391Z,57.83
2023-03-29T00:20:46.347Z,57.68
2023-03-29T00:21:00.019Z,57.20
2023-03-29T00:21:12.305Z,57.38
2023-03-29T00:21:24.343Z,57.36
2023-03-29T00:21:36.287Z,57.44
2023-03-29T00:21:48.265Z,57.30
2023-03-29T00:22:00.342Z,57.72
2023-03-29T00:22:13.192Z,57.72
2023-03-29T00:22:25.733Z,57.55
2023-03-29T00:22:40.055Z,57.84
2023-03-29T00:22:52.025Z,57.74
2023-03-29T00:23:04.403Z,57.69
2023-03-29T00:23:18.208Z,57.66
2023-03-29T00:23:30.559Z,57.45
2023-03-29T00:23:42.493Z,57.36
2023-03-29T00:23:54.598Z,57.70
2023-03-29T00:24:06.726Z,57.68
2023-03-29T00:24:18.781Z,57.58
2023-03-29T00:24:30.679Z,57.91
2023-03-29T00:24:42.649Z,57.88
2023-03-29T00:24:54.767Z,57.73
2023-03-29T00:25:07.295Z,57.82
2023-03-29T00:25:19.208Z,57.85
2023-03-29T00:25:31.298Z,57.98
2023-03-29T00:25:45.061Z,57.81
2023-03-29T00:25:57.118Z,57.71
2023-03-29T00:26:09.595Z,57.58
2023-03-29T00:26:21.800Z,57.65
2023-03-29T00:26:33.770Z,57.70
2023-03-29T00:26:45.907Z,58.04
2023-03-29T00:26:58.040Z,58.09
2023-03-29T00:27:09.929Z,57.98
2023-03-29T00:27:22.931Z,57.85
2023-03-29T00:27:35.286Z,57.63
2023-03-29T00:27:47.465Z,57.63
2023-03-29T00:27:59.336Z,57.67
2023-03-29T00:28:11.257Z,57.75
2023-03-29T00:28:23.551Z,57.76
2023-03-29T00:28:35.576Z,57.88
2023-03-29T00:28:47.583Z,57.76
2023-03-29T00:28:59.571Z,57.73
2023-03-29T00:29:11.500Z,57.85
2023-03-29T00:29:23.892Z,57.25
2023-03-29T00:29:35.879Z,58.15
2023-03-29T00:29:48.157Z,58.03
2023-03-29T00:30:00.179Z,58.04
2023-03-29T00:30:12.709Z,57.82
2023-03-29T00:30:24.721Z,58.24
2023-03-29T00:30:36.665Z,58.17
2023-03-29T00:30:50.822Z,58.01
2023-03-29T00:31:09.265Z,57.60
2023-03-29T00:31:21.235Z,57.82
2023-03-29T00:31:33.400Z,57.41
2023-03-29T00:31:51.302Z,57.88
2023-03-29T00:32:03.434Z,57.67
2023-03-29T00:32:15.506Z,57.83
2023-03-29T00:32:27.479Z,57.72
2023-03-29T00:32:39.499Z,57.63
2023-03-29T00:32:51.782Z,57.38
2023-03-29T00:33:03.794Z,57.72
2023-03-29T00:33:16.474Z,57.62
2023-03-29T00:33:28.356Z,57.68
2023-03-29T00:33:41.349Z,57.55
2023-03-29T00:33:53.415Z,57.84
2023-03-29T00:34:05.428Z,57.71
2023-03-29T00:34:17.343Z,57.86
2023-03-29T00:34:32.423Z,57.44
2023-03-29T00:34:46.075Z,57.87
2023-03-29T00:35:00.752Z,57.79
2023-03-29T00:35:12.745Z,57.91
2023-03-29T00:35:24.703Z,58.19
2023-03-29T00:35:39.208Z,58.15
2023-03-29T00:35:53.347Z,58.18
2023-03-29T00:36:07.236Z,58.01
2023-03-29T00:36:19.896Z,58.03
2023-03-29T00:36:31.844Z,58.01
2023-03-29T00:36:43.764Z,57.96
2023-03-29T00:36:58.086Z,57.88
2023-03-29T00:37:10.091Z,57.83
2023-03-29T00:37:22.530Z,58.00
2023-03-29T00:37:34.919Z,57.80
2023-03-29T00:37:50.954Z,58.09
2023-03-29T00:38:03.154Z,58.10
2023-03-29T00:38:15.569Z,58.67
2023-03-29T00:38:28.073Z,58.41
2023-03-29T00:38:40.307Z,58.36
2023-03-29T00:38:52.257Z,58.39
2023-03-29T00:39:04.506Z,58.04
2023-03-29T00:39:18.009Z,58.00
2023-03-29T00:39:30.833Z,57.72
2023-03-29T00:39:43.903Z,58.03
2023-03-29T00:39:56.939Z,58.25
2023-03-29T00:40:11.610Z,58.40
2023-03-29T00:40:23.923Z,58.44
2023-03-29T00:40:41.870Z,58.42
2023-03-29T00:40:53.794Z,58.14
2023-03-29T00:41:07.777Z,57.99
2023-03-29T00:41:19.830Z,58.23
2023-03-29T00:41:32.236Z,58.30
2023-03-29T00:41:45.986Z,58.38
2023-03-29T00:41:57.951Z,58.22
2023-03-29T00:42:13.743Z,58.38
2023-03-29T00:42:26.156Z,58.50
2023-03-29T00:42:38.444Z,58.20
2023-03-29T00:42:50.393Z,58.20
2023-03-29T00:43:02.281Z,58.21
2023-03-29T00:43:15.847Z,58.04
2023-03-29T00:43:27.972Z,58.06
2023-03-29T00:44:01.012Z,58.18
2023-03-29T00:44:50.515Z,58.10
2023-03-29T00:45:21.154Z,57.63
2023-03-29T00:45:35.819Z,57.68
2023-03-29T00:45:48.247Z,57.73
2023-03-29T00:46:00.343Z,57.87
2023-03-29T00:46:13.391Z,57.79
2023-03-29T00:46:27.046Z,58.07
2023-03-29T00:46:39.318Z,58.02
2023-03-29T00:46:51.437Z,58.00
2023-03-29T00:47:03.576Z,57.77
2023-03-29T00:47:18.053Z,57.44
2023-03-29T00:47:32.660Z,57.68
2023-03-29T00:47:55.481Z,57.57
2023-03-29T00:48:17.304Z,57.68
2023-03-29T00:48:30.010Z,57.50
2023-03-29T00:48:42.351Z,57.54
2023-03-29T00:48:58.826Z,57.42
2023-03-29T00:49:15.369Z,57.13
2023-03-29T00:49:27.415Z,57.08
2023-03-29T00:49:39.768Z,57.16
2023-03-29T00:49:52.807Z,57.34
2023-03-29T00:50:12.481Z,57.16
2023-03-29T00:50:40.089Z,56.94
2023-03-29T00:50:57.248Z,57.21
2023-03-29T00:51:11.160Z,57.53
2023-03-29T00:51:27.366Z,57.18
2023-03-29T00:51:41.361Z,57.19
2023-03-29T00:51:53.360Z,57.38
2023-03-29T00:52:06.496Z,57.05
2023-03-29T00:52:21.436Z,57.30
2023-03-29T00:52:35.312Z,57.32
2023-03-29T00:52:55.055Z,57.18
2023-03-29T00:53:35.712Z,57.83
2023-03-29T00:53:53.717Z,57.50
2023-03-29T00:54:08.192Z,57.74
2023-03-29T00:54:20.218Z,57.74
2023-03-29T00:54:32.879Z,57.24
2023-03-29T00:54:46.287Z,57.21
2023-03-29T00:55:03.515Z,57.45
2023-03-29T00:55:19.955Z,57.33
2023-03-29T00:55:54.111Z,57.32
2023-03-29T00:56:10.054Z,57.76
2023-03-29T00:56:29.772Z,57.63
2023-03-29T00:56:49.691Z,57.75
2023-03-29T00:57:03.938Z,57.56
2023-03-29T00:57:20.456Z,57.64
2023-03-29T00:57:35.818Z,57.65
2023-03-29T00:57:49.159Z,57.73
2023-03-29T00:58:04.578Z,57.84
2023-03-29T00:58:23.342Z,57.81
2023-03-29T00:58:43.094Z,57.34
2023-03-29T00:59:09.928Z,57.69
2023-03-29T00:59:28.467Z,57.21
2023-03-29T00:59:42.719Z,57.65
2023-03-29T00:59:56.585Z,57.40
2023-03-29T01:00:12.031Z,57.28
2023-03-29T01:00:31.795Z,57.60
2023-03-29T01:01:02.647Z,57.37
2023-03-29T01:01:21.438Z,57.51
2023-03-29T01:01:59.803Z,57.76
2023-03-29T01:02:11.867Z,57.70
2023-03-29T01:02:29.071Z,57.35
2023-03-29T01:02:42.324Z,57.77
2023-03-29T01:02:59.565Z,57.86
2023-03-29T01:03:14.586Z,58.06
2023-03-29T01:03:30.179Z,58.04
2023-03-29T01:03:48.609Z,57.90
2023-03-29T01:04:08.412Z,57.90
2023-03-29T01:04:25.872Z,57.86
2023-03-29T01:04:58.925Z,57.59
2023-03-29T01:05:16.417Z,57.70
2023-03-29T01:05:38.173Z,57.89
2023-03-29T01:05:56.764Z,57.81
2023-03-29T01:06:10.581Z,57.80
2023-03-29T01:06:26.141Z,57.68
2023-03-29T01:06:43.291Z,57.70
2023-03-29T01:07:25.848Z,57.65
2023-03-29T01:07:49.320Z,58.02
2023-03-29T01:08:18.358Z,57.83
2023-03-29T01:08:37.412Z,57.81
2023-03-29T01:08:58.121Z,57.87
2023-03-29T01:09:14.606Z,57.84
2023-03-29T01:09:30.421Z,57.80
2023-03-29T01:09:48.471Z,57.90
2023-03-29T01:10:12.746Z,57.80
2023-03-29T01:10:49.521Z,57.60
2023-03-29T01:11:08.512Z,57.93
2023-03-29T01:11:26.549Z,57.90
2023-03-29T01:11:45.680Z,57.79
2023-03-29T01:12:02.727Z,57.73
2023-03-29T01:12:23.589Z,57.89
2023-03-29T01:12:43.295Z,57.96
2023-03-29T01:13:01.873Z,57.78
2023-03-29T01:13:20.822Z,57.85
2023-03-29T01:13:39.377Z,57.97
2023-03-29T01:14:02.502Z,58.05
2023-03-29T01:14:21.717Z,58.14
2023-03-29T01:14:42.570Z,58.05
2023-03-29T01:14:58.338Z,58.11
2023-03-29T01:15:17.972Z,58.01
2023-03-29T01:15:30.462Z,57.98
2023-03-29T01:15:45.292Z,58.31
2023-03-29T01:15:58.992Z,57.85
2023-03-29T01:16:13.441Z,58.28
2023-03-29T01:16:28.484Z,58.25
2023-03-29T01:16:41.187Z,57.93
2023-03-29T01:16:53.250Z,57.98
2023-03-29T01:17:06.600Z,58.18
2023-03-29T01:17:21.928Z,57.85
2023-03-29T01:17:33.948Z,57.89
2023-03-29T01:17:50.876Z,57.97
2023-03-29T01:18:03.089Z,57.66
2023-03-29T01:18:15.108Z,57.65
2023-03-29T01:18:27.150Z,57.88
2023-03-29T01:18:39.659Z,57.71
2023-03-29T01:18:52.503Z,57.51
2023-03-29T01:19:07.256Z,57.58
2023-03-29T01:19:22.304Z,57.83
2023-03-29T01:19:46.704Z,57.65
2023-03-29T01:20:10.556Z,57.68
2023-03-29T01:20:25.242Z,57.80
2023-03-29T01:20:51.025Z,58.10
2023-03-29T01:21:24.381Z,58.10
2023-03-29T01:22:04.025Z,57.91
2023-03-29T01:22:38.612Z,57.93
2023-03-29T01:23:21.414Z,57.96
2023-03-29T01:23:46.483Z,57.80
2023-03-29T01:24:22.128Z,58.07
2023-03-29T01:24:52.296Z,58.19
2023-03-29T01:25:26.119Z,58.05
2023-03-29T01:25:59.007Z,58.08
2023-03-29T01:26:36.131Z,58.27
2023-03-29T01:27:00.564Z,57.96
2023-03-29T01:27:37.204Z,58.37
2023-03-29T01:27:50.099Z,58.63
2023-03-29T01:28:17.294Z,58.65
2023-03-29T01:28:52.830Z,58.54
2023-03-29T01:29:04.737Z,58.37
2023-03-29T01:29:31.969Z,58.69
2023-03-29T01:30:10.318Z,58.39
2023-03-29T01:30:48.247Z,58.56
2023-03-29T01:31:09.175Z,58.54
2023-03-29T01:31:32.441Z,58.75
2023-03-29T01:31:49.845Z,58.54
2023-03-29T01:32:17.082Z,58.58
2023-03-29T01:32:48.759Z,58.56
2023-03-29T01:33:07.880Z,58.57
2023-03-29T01:33:28.128Z,58.51
2023-03-29T01:33:48.787Z,58.77
2023-03-29T01:34:11.523Z,58.73
2023-03-29T01:34:27.343Z,58.70
2023-03-29T01:35:00.462Z,58.93
2023-03-29T01:35:28.430Z,58.98
2023-03-29T01:35:44.650Z,58.86
2023-03-29T01:36:08.005Z,58.73
2023-03-29T01:36:35.017Z,58.46
2023-03-29T01:36:58.791Z,58.96
2023-03-29T01:37:17.932Z,60.32
2023-03-29T01:37:37.753Z,60.22
2023-03-29T01:38:07.181Z,59.79
2023-03-29T01:38:25.600Z,60.00
2023-03-29T01:38:45.977Z,60.38
2023-03-29T01:39:03.259Z,60.07
2023-03-29T01:39:15.270Z,60.41
2023-03-29T01:39:27.473Z,60.54
2023-03-29T01:39:39.834Z,60.66
2023-03-29T01:39:52.929Z,60.49
2023-03-29T01:40:06.204Z,60.06
2023-03-29T01:40:18.315Z,59.97
2023-03-29T01:40:33.070Z,60.54
2023-03-29T01:40:45.030Z,60.81
2023-03-29T01:40:56.981Z,60.83
2023-03-29T01:41:10.359Z,60.74
2023-03-29T01:41:23.339Z,60.93
2023-03-29T01:41:59.293Z,61.11
2023-03-29T01:42:25.941Z,60.97
2023-03-29T01:43:18.863Z,60.81
2023-03-29T01:43:56.678Z,60.94
2023-03-29T01:44:24.969Z,61.45
2023-03-29T01:44:46.196Z,61.83
2023-03-29T01:45:13.464Z,62.17
2023-03-29T01:45:34.915Z,62.21
2023-03-29T01:46:26.472Z,61.82
2023-03-29T01:46:54.434Z,61.30
2023-03-29T01:47:24.710Z,61.11
2023-03-29T01:48:01.464Z,60.95
2023-03-29T01:48:41.200Z,60.90
2023-03-29T01:48:58.191Z,61.13
2023-03-29T01:49:51.219Z,60.87
2023-03-29T01:50:22.611Z,60.70
2023-03-29T01:50:58.314Z,60.97
2023-03-29T01:51:18.402Z,60.90
2023-03-29T01:51:41.814Z,60.96
2023-03-29T01:52:17.101Z,60.67
2023-03-29T01:52:39.665Z,60.66
2023-03-29T01:52:59.474Z,60.53
2023-03-29T01:53:14.626Z,60.42
2023-03-29T01:53:44.054Z,60.82
2023-03-29T01:54:27.998Z,60.29
2023-03-29T01:54:50.268Z,60.60
2023-03-29T01:55:14.758Z,60.68
2023-03-29T01:55:38.241Z,60.46
2023-03-29T01:55:54.916Z,60.73
2023-03-29T01:56:21.581Z,61.20
2023-03-29T01:56:37.804Z,60.68
2023-03-29T01:56:51.283Z,60.97
2023-03-29T01:57:05.697Z,60.67
2023-03-29T01:57:19.734Z,60.36
2023-03-29T01:57:33.552Z,60.73
2023-03-29T01:57:47.725Z,61.23
2023-03-29T01:58:01.782Z,60.84
2023-03-29T01:58:17.031Z,60.81
2023-03-29T01:58:34.228Z,60.87
2023-03-29T01:58:51.212Z,60.76
2023-03-29T01:59:14.396Z,60.53
2023-03-29T01:59:31.110Z,60.91
2023-03-29T01:59:44.950Z,60.86
2023-03-29T01:59:58.276Z,61.25
2023-03-29T02:00:16.517Z,61.32
2023-03-29T02:00:29.805Z,60.98
2023-03-29T02:00:43.870Z,61.29
2023-03-29T02:00:55.930Z,61.11
2023-03-29T02:01:13.845Z,60.98
2023-03-29T02:01:30.478Z,61.14
2023-03-29T02:01:49.068Z,61.19
2023-03-29T02:02:05.488Z,60.73
2023-03-29T02:02:20.405Z,60.73
2023-03-29T02:02:32.942Z,60.82
2023-03-29T02:02:47.222Z,60.73
2023-03-29T02:03:04.793Z,60.59
2023-03-29T02:03:18.774Z,60.52
2023-03-29T02:03:33.858Z,60.49
2023-03-29T02:03:50.760Z,60.44
2023-03-29T02:04:06.453Z,60.68
2023-03-29T02:04:25.521Z,60.57
2023-03-29T02:04:45.843Z,60.10
2023-03-29T02:04:59.307Z,60.00
2023-03-29T02:05:15.108Z,60.22
2023-03-29T02:05:30.615Z,60.41
2023-03-29T02:05:44.720Z,61.14
2023-03-29T02:05:59.163Z,62.73
2023-03-29T02:06:15.475Z,62.50
2023-03-29T02:06:29.778Z,62.02
2023-03-29T02:06:42.775Z,61.95
2023-03-29T02:06:57.512Z,62.17
2023-03-29T02:07:10.577Z,61.86
2023-03-29T02:07:27.070Z,61.95
2023-03-29T02:07:40.555Z,61.78
2023-03-29T02:07:53.280Z,62.27
2023-03-29T02:08:09.282Z,62.56
2023-03-29T02:08:23.031Z,62.84
2023-03-29T02:08:35.755Z,62.45
2023-03-29T02:08:48.591Z,62.28
2023-03-29T02:09:01.430Z,62.36
2023-03-29T02:09:13.503Z,62.55
2023-03-29T02:09:28.716Z,62.54
2023-03-29T02:09:42.759Z,62.61
2023-03-29T02:09:55.546Z,62.70
2023-03-29T02:10:09.903Z,62.59
2023-03-29T02:10:23.536Z,62.71
2023-03-29T02:10:36.805Z,62.37
2023-03-29T02:10:51.673Z,62.06
2023-03-29T02:11:04.577Z,62.12
2023-03-29T02:11:17.516Z,62.22
2023-03-29T02:11:29.678Z,62.37
2023-03-29T02:11:44.366Z,61.80
2023-03-29T02:12:03.450Z,61.79
2023-03-29T02:12:16.843Z,61.73
2023-03-29T02:12:28.859Z,61.97
2023-03-29T02:12:41.407Z,61.77
2023-03-29T02:12:53.469Z,61.22
2023-03-29T02:13:05.804Z,61.01
2023-03-29T02:13:18.988Z,61.01
2023-03-29T02:13:31.684Z,60.92
2023-03-29T02:13:43.631Z,61.18
2023-03-29T02:13:56.877Z,61.35
2023-03-29T02:14:09.839Z,61.62
2023-03-29T02:14:21.905Z,61.58
2023-03-29T02:14:33.802Z,61.44
2023-03-29T02:14:45.726Z,61.47
2023-03-29T02:14:58.920Z,61.59
2023-03-29T02:15:14.507Z,61.47
2023-03-29T02:15:26.463Z,61.34
2023-03-29T02:15:39.747Z,61.16
2023-03-29T02:15:51.900Z,61.59
2023-03-29T02:16:15.309Z,61.26
2023-03-29T02:16:27.493Z,61.24
2023-03-29T02:16:40.332Z,61.09
2023-03-29T02:16:52.290Z,61.26
2023-03-29T02:17:33.395Z,60.77
2023-03-29T02:17:46.776Z,61.05
2023-03-29T02:17:59.103Z,60.92
2023-03-29T02:18:11.906Z,60.58
2023-03-29T02:18:24.630Z,60.45
2023-03-29T02:18:36.511Z,60.97
2023-03-29T02:18:49.960Z,60.88
2023-03-29T02:19:02.674Z,60.83
2023-03-29T02:19:15.325Z,61.00
2023-03-29T02:19:27.924Z,60.92
2023-03-29T02:19:40.287Z,61.07
2023-03-29T02:20:14.436Z,60.86
2023-03-29T02:20:31.883Z,61.11
2023-03-29T02:20:50.693Z,61.33
2023-03-29T02:21:02.867Z,61.19
2023-03-29T02:21:26.395Z,61.55
2023-03-29T02:21:53.309Z,61.84
2023-03-29T02:22:10.149Z,61.77
2023-03-29T02:22:28.806Z,61.46
2023-03-29T02:22:59.121Z,61.42
2023-03-29T02:23:45.240Z,60.79
2023-03-29T02:24:02.011Z,60.58
2023-03-29T02:24:17.912Z,60.46
2023-03-29T02:24:32.967Z,60.55
2023-03-29T02:24:48.178Z,60.52
2023-03-29T02:25:03.472Z,60.60
2023-03-29T02:25:17.396Z,60.61
2023-03-29T02:25:30.049Z,60.51
2023-03-29T02:25:45.528Z,61.00
2023-03-29T02:25:57.605Z,60.86
2023-03-29T02:26:09.858Z,60.90
2023-03-29T02:26:22.550Z,60.53
2023-03-29T02:26:34.898Z,61.06
2023-03-29T02:26:47.616Z,61.03
2023-03-29T02:27:01.080Z,61.05
2023-03-29T02:27:13.062Z,61.24
2023-03-29T02:27:28.009Z,61.11
2023-03-29T02:27:40.085Z,61.42
2023-03-29T02:27:52.796Z,61.57
2023-03-29T02:28:06.881Z,61.18
2023-03-29T02:28:21.595Z,61.22
2023-03-29T02:28:33.578Z,61.05
2023-03-29T02:28:45.696Z,61.09
2023-03-29T02:29:00.945Z,61.16
2023-03-29T02:29:13.125Z,61.23
2023-03-29T02:29:26.214Z,61.00
2023-03-29T02:29:38.449Z,60.90
2023-03-29T02:29:50.558Z,60.91
2023-03-29T02:30:02.650Z,60.73
2023-03-29T02:30:18.350Z,60.70
2023-03-29T02:30:38.016Z,60.79
2023-03-29T02:31:08.045Z,61.02
2023-03-29T02:31:32.288Z,61.22
2023-03-29T02:31:51.742Z,61.12
2023-03-29T02:32:12.749Z,61.55
2023-03-29T02:32:33.900Z,61.37
2023-03-29T02:32:53.078Z,61.50
2023-03-29T02:33:12.105Z,61.07
2023-03-29T02:33:34.397Z,61.14
2023-03-29T02:33:54.491Z,61.15
2023-03-29T02:34:22.975Z,61.17
2023-03-29T02:34:43.419Z,61.35
2023-03-29T02:35:04.506Z,61.29
2023-03-29T02:35:23.236Z,61.21
2023-03-29T02:35:45.858Z,61.04
2023-03-29T02:36:07.811Z,60.89
2023-03-29T02:36:46.657Z,60.99
2023-03-29T02:37:04.265Z,60.79
2023-03-29T02:37:18.906Z,60.61
2023-03-29T02:37:34.379Z,60.48
2023-03-29T02:37:49.847Z,60.75
2023-03-29T02:38:08.770Z,60.87
2023-03-29T02:38:21.942Z,60.55
2023-03-29T02:38:34.963Z,60.71
2023-03-29T02:38:47.516Z,60.80
2023-03-29T02:39:02.290Z,60.88
2023-03-29T02:39:16.216Z,60.79
2023-03-29T02:39:31.685Z,60.66
2023-03-29T02:39:44.255Z,60.64
2023-03-29T02:39:57.761Z,60.21
2023-03-29T02:40:13.041Z,60.41
2023-03-29T02:40:26.075Z,60.16
2023-03-29T02:40:39.936Z,60.28
2023-03-29T02:40:52.913Z,60.27
2023-03-29T02:41:06.902Z,60.37
2023-03-29T02:41:19.718Z,60.00
2023-03-29T02:41:32.681Z,60.12
2023-03-29T02:41:48.523Z,60.17
2023-03-29T02:42:02.804Z,60.37
2023-03-29T02:42:17.714Z,60.01
2023-03-29T02:42:31.300Z,60.12
2023-03-29T02:42:45.656Z,60.22
2023-03-29T02:42:59.549Z,60.05
2023-03-29T02:43:13.204Z,60.15
2023-03-29T02:43:26.197Z,60.01
2023-03-29T02:43:40.944Z,59.74
2023-03-29T02:43:55.842Z,59.80
2023-03-29T02:44:14.053Z,59.81
2023-03-29T02:44:29.668Z,59.98
2023-03-29T02:44:42.425Z,59.66
2023-03-29T02:44:57.014Z,60.04
2023-03-29T02:45:11.416Z,60.00
2023-03-29T02:45:25.262Z,59.73
2023-03-29T02:45:39.622Z,59.78
2023-03-29T02:45:53.203Z,59.61
2023-03-29T02:46:07.675Z,59.93
2023-03-29T02:46:20.873Z,59.45
2023-03-29T02:46:33.164Z,59.60
2023-03-29T02:46:48.756Z,59.41
2023-03-29T02:47:07.688Z,59.55
2023-03-29T02:47:24.956Z,59.62
2023-03-29T02:47:48.273Z,59.92
2023-03-29T02:48:05.061Z,59.87
2023-03-29T02:48:21.051Z,59.63
2023-03-29T02:48:37.027Z,59.50
2023-03-29T02:48:51.214Z,59.38
2023-03-29T02:49:05.395Z,59.70
2023-03-29T02:49:17.348Z,59.67
2023-03-29T02:49:29.314Z,59.52
2023-03-29T02:49:41.433Z,59.56
2023-03-29T02:49:54.722Z,59.60
2023-03-29T02:50:08.477Z,60.04
2023-03-29T02:50:21.296Z,60.14
2023-03-29T02:50:39.338Z,59.92
2023-03-29T02:50:56.159Z,60.03
2023-03-29T02:51:19.902Z,60.11
2023-03-29T02:51:34.078Z,60.18
2023-03-29T02:51:49.273Z,59.93
2023-03-29T02:52:08.792Z,60.22
2023-03-29T02:52:28.115Z,60.06
2023-03-29T02:52:48.452Z,60.30
2023-03-29T02:53:04.671Z,60.23
2023-03-29T02:53:20.896Z,59.74
2023-03-29T02:53:41.397Z,60.13
2023-03-29T02:54:00.151Z,59.97
2023-03-29T02:54:16.177Z,60.01
2023-03-29T02:54:31.772Z,59.84
2023-03-29T02:54:48.312Z,60.29
2023-03-29T02:55:04.254Z,60.10
2023-03-29T02:55:17.674Z,60.06
2023-03-29T02:55:34.467Z,59.82
2023-03-29T02:55:47.146Z,60.24
2023-03-29T02:56:02.130Z,59.71
2023-03-29T02:56:16.787Z,59.34
2023-03-29T02:56:29.600Z,59.66
2023-03-29T02:56:49.991Z,59.82
2023-03-29T02:57:07.975Z,59.51
2023-03-29T02:57:26.311Z,59.75
2023-03-29T02:57:39.575Z,60.43
2023-03-29T02:57:51.541Z,60.09
2023-03-29T02:58:08.428Z,60.31
2023-03-29T02:58:20.681Z,60.24
2023-03-29T02:58:32.889Z,60.04
2023-03-29T02:58:44.832Z,60.09
2023-03-29T02:58:56.774Z,60.02
2023-03-29T02:59:09.676Z,59.73
2023-03-29T02:59:22.663Z,59.57
2023-03-29T02:59:35.188Z,59.71
2023-03-29T02:59:47.114Z,59.70
2023-03-29T03:00:00.925Z,59.57
2023-03-29T03:00:14.711Z,60.14
2023-03-29T03:00:26.616Z,59.80
2023-03-29T03:00:42.190Z,59.79
2023-03-29T03:00:56.354Z,59.87
2023-03-29T03:01:09.657Z,59.94
2023-03-29T03:01:22.899Z,60.06
2023-03-29T03:01:36.841Z,60.15
2023-03-29T03:01:49.979Z,60.16
2023-03-29T03:02:03.425Z,60.08
2023-03-29T03:02:17.476Z,59.84
2023-03-29T03:02:30.496Z,60.12
2023-03-29T03:02:42.801Z,60.32
2023-03-29T03:02:55.406Z,60.17
2023-03-29T03:03:08.735Z,60.07
2023-03-29T03:03:21.978Z,60.43
2023-03-29T03:03:35.845Z,59.99
2023-03-29T03:03:48.234Z,60.28
2023-03-29T03:04:00.286Z,59.98
2023-03-29T03:04:13.150Z,59.98
2023-03-29T03:04:25.966Z,60.00
2023-03-29T03:04:38.166Z,59.62
2023-03-29T03:04:50.112Z,59.89
2023-03-29T03:05:02.014Z,59.94
2023-03-29T03:05:14.144Z,59.85
2023-03-29T03:05:26.049Z,59.61
2023-03-29T03:05:38.730Z,59.80
2023-03-29T03:05:52.346Z,59.92
2023-03-29T03:06:04.829Z,60.26
2023-03-29T03:06:16.978Z,59.82
2023-03-29T03:06:29.082Z,59.91
2023-03-29T03:06:41.416Z,60.07
2023-03-29T03:06:53.371Z,59.98
2023-03-29T03:07:05.385Z,59.84
2023-03-29T03:07:17.491Z,60.08
2023-03-29T03:07:29.788Z,60.03
2023-03-29T03:07:42.399Z,59.85
2023-03-29T03:07:54.398Z,60.27
2023-03-29T03:08:07.432Z,59.94
2023-03-29T03:08:19.797Z,59.98
2023-03-29T03:08:32.185Z,59.87
2023-03-29T03:08:44.372Z,59.96
2023-03-29T03:08:56.684Z,59.93
2023-03-29T03:09:09.741Z,59.73
2023-03-29T03:09:21.670Z,59.70
2023-03-29T03:09:34.227Z,59.69
2023-03-29T03:09:49.479Z,60.00
2023-03-29T03:10:01.682Z,59.68
2023-03-29T03:10:16.698Z,60.25
2023-03-29T03:10:28.654Z,60.30
2023-03-29T03:10:40.973Z,60.27
2023-03-29T03:10:54.028Z,60.10
2023-03-29T03:11:06.992Z,60.21
2023-03-29T03:11:18.926Z,59.99
2023-03-29T03:11:32.057Z,59.84
2023-03-29T03:11:44.147Z,59.98
2023-03-29T03:11:56.164Z,59.85
2023-03-29T03:12:08.463Z,59.85
2023-03-29T03:12:20.397Z,60.01
2023-03-29T03:12:32.305Z,59.99
2023-03-29T03:12:44.180Z,59.59
2023-03-29T03:12:56.320Z,59.76
2023-03-29T03:13:08.282Z,60.20
2023-03-29T03:13:20.673Z,60.14
2023-03-29T03:13:32.678Z,60.09
2023-03-29T03:13:44.593Z,60.05
2023-03-29T03:13:56.505Z,60.05
2023-03-29T03:14:08.472Z,60.07
2023-03-29T03:14:22.802Z,60.20
2023-03-29T03:14:35.372Z,60.19
2023-03-29T03:14:47.304Z,60.38
2023-03-29T03:15:00.038Z,60.17
2023-03-29T03:15:12.141Z,59.94
2023-03-29T03:15:24.312Z,59.94
2023-03-29T03:15:36.304Z,60.04
2023-03-29T03:15:49.288Z,59.73
2023-03-29T03:16:01.502Z,60.02
2023-03-29T03:16:13.464Z,59.67
2023-03-29T03:16:26.339Z,59.89
2023-03-29T03:16:38.621Z,59.90
2023-03-29T03:16:50.642Z,59.88
2023-03-29T03:17:04.536Z,59.63
2023-03-29T03:17:18.694Z,59.49
2023-03-29T03:17:33.080Z,59.64
2023-03-29T03:17:46.638Z,59.77
2023-03-29T03:17:58.696Z,59.22
2023-03-29T03:18:10.826Z,59.83
2023-03-29T03:18:23.336Z,59.73
2023-03-29T03:18:35.265Z,59.94
2023-03-29T03:18:48.613Z,59.67
2023-03-29T03:19:00.932Z,59.75
2023-03-29T03:19:13.235Z,59.75
2023-03-29T03:19:25.196Z,59.81
2023-03-29T03:19:37.191Z,59.75
2023-03-29T03:19:49.832Z,59.71
2023-03-29T03:20:01.889Z,59.62
2023-03-29T03:20:13.836Z,59.51
2023-03-29T03:20:26.498Z,59.75
2023-03-29T03:20:40.035Z,59.52
2023-03-29T03:21:01.907Z,59.56
2023-03-29T03:21:14.197Z,59.41
2023-03-29T03:21:28.077Z,59.04
2023-03-29T03:21:40.039Z,58.81
2023-03-29T03:21:52.101Z,58.85
2023-03-29T03:22:05.936Z,59.05
2023-03-29T03:22:18.343Z,59.33
2023-03-29T03:22:30.250Z,59.33
2023-03-29T03:22:45.115Z,59.35
2023-03-29T03:22:57.716Z,60.04
2023-03-29T03:23:09.652Z,60.14
2023-03-29T03:23:21.564Z,60.24
2023-03-29T03:23:33.609Z,60.40
2023-03-29T03:23:47.244Z,60.24
2023-03-29T03:23:59.208Z,60.57
2023-03-29T03:24:11.385Z,60.58
2023-03-29T03:24:23.288Z,60.64
2023-03-29T03:24:35.737Z,60.42
2023-03-29T03:24:49.140Z,60.74
2023-03-29T03:25:01.298Z,60.41
2023-03-29T03:25:13.222Z,60.33
2023-03-29T03:25:25.633Z,60.42
2023-03-29T03:25:37.571Z,60.42
2023-03-29T03:25:49.671Z,60.29